Time;durP1;ratioP1;P1;durP2;ratioP2;P2;SDS_P1;SDS_P2;PMS_P1;PMS_P2;Temp;Humidity;BMP_temperature;BMP_pressure;BME280_temperature;BME280_humidity;BME280_pressure;Samples;Min_cycle;Max_cycle;Signal;HPM_P1;HPM_P2
2023/06/09 00:02:07;;;;;;;;;;;13.40;99.90;;;;;;5014136;28;19959;-73
2023/06/09 00:04:36;;;;;;;;;;;13.50;99.90;;;;;;5013963;28;19948;-73
2023/06/09 00:07:02;;;;;;;;;;;13.40;99.90;;;;;;5014163;28;19912;-73
2023/06/09 00:09:31;;;;;;;;;;;13.40;99.90;;;;;;5013748;28;19905;-70
2023/06/09 00:11:57;;;;;;;;;;;13.40;99.90;;;;;;5013948;28;19984;-70
2023/06/09 00:14:23;;;;;;;;;;;13.30;99.90;;;;;;5014008;28;20322;-71
2023/06/09 00:16:49;;;;;;;;;;;13.10;99.90;;;;;;5014006;28;19951;-71
2023/06/09 00:19:17;;;;;;;;;;;13.00;99.90;;;;;;5013960;28;19909;-71
2023/06/09 00:21:50;;;;;;;;;;;12.80;99.90;;;;;;5013791;28;19936;-70
2023/06/09 00:24:18;;;;;;;;;;;12.70;99.90;;;;;;5013884;28;19905;-71
2023/06/09 00:26:44;;;;;;;;;;;12.60;99.90;;;;;;5012582;28;19906;-70
2023/06/09 00:29:10;;;;;;;;;;;12.60;99.90;;;;;;5013864;28;19914;-71
2023/06/09 00:31:35;;;;;;;;;;;12.60;99.90;;;;;;5013790;28;19917;-70
2023/06/09 00:34:01;;;;;;;;;;;12.60;99.90;;;;;;5013734;28;19933;-71
2023/06/09 00:36:26;;;;;;;;;;;12.70;99.90;;;;;;5013752;28;19932;-71
2023/06/09 00:38:52;;;;;;;;;;;12.70;99.90;;;;;;5013953;28;20285;-70
2023/06/09 00:41:17;;;;;;;;;;;12.60;99.90;;;;;;5013667;28;19913;-71
2023/06/09 00:43:47;;;;;;;;;;;12.60;99.90;;;;;;5013631;28;20324;-70
2023/06/09 00:46:13;;;;;;;;;;;12.50;99.90;;;;;;5012575;28;20432;-70
2023/06/09 00:48:39;;;;;;;;;;;12.40;99.90;;;;;;5013789;28;19905;-71
2023/06/09 00:51:04;;;;;;;;;;;12.20;99.90;;;;;;5013690;28;19917;-70
2023/06/09 00:53:30;;;;;;;;;;;12.20;99.90;;;;;;5016484;28;19914;-70
2023/06/09 00:55:56;;;;;;;;;;;12.10;99.90;;;;;;5017298;28;19913;-70
2023/06/09 00:58:22;;;;;;;;;;;12.10;99.90;;;;;;5017260;28;19906;-71
2023/06/09 01:00:48;;;;;;;;;;;12.10;99.90;;;;;;5017206;28;19916;-70
2023/06/09 01:03:14;;;;;;;;;;;12.10;99.90;;;;;;5017167;28;20290;-70
2023/06/09 01:05:44;;;;;;;;;;;12.10;99.90;;;;;;5018041;28;20717;-71
2023/06/09 01:08:21;;;;;;;;;;;12.20;99.90;;;;;;5019038;28;19908;-71
2023/06/09 01:10:48;;;;;;;;;;;12.20;99.90;;;;;;5035879;28;19991;-71
2023/06/09 01:13:20;;;;;;;;;;;12.20;99.90;;;;;;5036585;28;19912;-70
2023/06/09 01:15:49;;;;;;;;;;;12.30;99.90;;;;;;5036584;28;19909;-70
2023/06/09 01:18:15;;;;;;;;;;;12.20;99.90;;;;;;5035725;28;19905;-70
2023/06/09 01:20:45;;;;;;;;;;;12.20;99.90;;;;;;5036353;28;19917;-71
2023/06/09 01:23:20;;;;;;;;;;;12.20;99.90;;;;;;5036368;28;19905;-70
2023/06/09 01:25:47;;;;;;;;;;;12.20;99.90;;;;;;5035642;28;19936;-70
2023/06/09 01:28:20;;;;;;;;;;;12.20;99.90;;;;;;5036290;28;19920;-70
2023/06/09 01:30:46;;;;;;;;;;;12.30;99.90;;;;;;5036215;28;19912;-70
2023/06/09 01:33:17;;;;;;;;;;;12.20;99.90;;;;;;5036321;28;19951;-71
2023/06/09 01:35:43;;;;;;;;;;;12.20;99.90;;;;;;5036171;28;19905;-71
2023/06/09 01:38:09;;;;;;;;;;;12.20;99.90;;;;;;5028359;28;19905;-71
2023/06/09 01:40:35;;;;;;;;;;;12.10;99.90;;;;;;5034291;28;19904;-71
2023/06/09 01:43:02;;;;;;;;;;;11.90;99.90;;;;;;5034256;28;19963;-71
2023/06/09 01:45:27;;;;;;;;;;;11.70;99.90;;;;;;5034120;28;19909;-71
2023/06/09 01:47:53;;;;;;;;;;;11.60;99.90;;;;;;5034066;28;19916;-71
2023/06/09 01:50:25;;;;;;;;;;;11.50;99.90;;;;;;5034797;28;19966;-70
2023/06/09 01:53:01;;;;;;;;;;;11.40;99.90;;;;;;5036153;28;19909;-70
2023/06/09 01:55:49;;;;;;;;;;;11.40;99.90;;;;;;5018153;28;19912;-70
2023/06/09 01:58:17;;;;;;;;;;;11.50;99.90;;;;;;5018149;28;19909;-71
2023/06/09 02:00:44;;;;;;;;;;;11.50;99.90;;;;;;5035861;28;20027;-71
2023/06/09 02:03:11;;;;;;;;;;;11.50;99.90;;;;;;5017546;28;19909;-71
2023/06/09 02:05:37;;;;;;;;;;;11.60;99.90;;;;;;5035797;28;19909;-71
2023/06/09 02:08:03;;;;;;;;;;;11.50;99.90;;;;;;5035918;28;19935;-70
2023/06/09 02:10:29;;;;;;;;;;;11.50;99.90;;;;;;5017992;28;19940;-71
2023/06/09 02:12:55;;;;;;;;;;;11.50;99.90;;;;;;5035605;28;20358;-71
2023/06/09 02:15:21;;;;;;;;;;;11.50;99.90;;;;;;5035513;28;19911;-71
2023/06/09 02:17:46;;;;;;;;;;;11.50;99.90;;;;;;5035537;28;19909;-71
2023/06/09 02:20:12;;;;;;;;;;;11.50;99.90;;;;;;5035446;28;19905;-70
2023/06/09 02:22:38;;;;;;;;;;;11.50;99.90;;;;;;5035301;28;19909;-71
2023/06/09 02:25:04;;;;;;;;;;;11.50;99.90;;;;;;5035354;28;19991;-71
2023/06/09 02:27:30;;;;;;;;;;;11.40;99.90;;;;;;5017620;28;19947;-71
2023/06/09 02:29:55;;;;;;;;;;;11.40;99.90;;;;;;5017752;28;19953;-71
2023/06/09 02:32:22;;;;;;;;;;;11.40;99.90;;;;;;5035265;28;19966;-71
2023/06/09 02:34:47;;;;;;;;;;;11.40;99.90;;;;;;5035221;28;19952;-71
2023/06/09 02:37:13;;;;;;;;;;;11.40;99.90;;;;;;5035167;28;20262;-71
2023/06/09 02:39:39;;;;;;;;;;;11.30;99.90;;;;;;5035143;28;20369;-71
2023/06/09 02:42:05;;;;;;;;;;;11.10;99.90;;;;;;5035272;28;19916;-71
2023/06/09 02:44:36;;;;;;;;;;;11.00;99.90;;;;;;5034958;28;20276;-71
2023/06/09 02:47:03;;;;;;;;;;;10.90;99.90;;;;;;5034949;28;19992;-71
2023/06/09 02:49:28;;;;;;;;;;;10.90;99.90;;;;;;5034724;28;19948;-70
2023/06/09 02:51:54;;;;;;;;;;;10.90;99.90;;;;;;5017100;28;19905;-71
2023/06/09 02:54:20;;;;;;;;;;;11.00;99.90;;;;;;5034796;28;19963;-71
2023/06/09 02:56:45;;;;;;;;;;;11.00;99.90;;;;;;5034673;28;20327;-71
2023/06/09 02:59:11;;;;;;;;;;;11.00;99.90;;;;;;5034804;28;19923;-70
2023/06/09 03:01:37;;;;;;;;;;;11.00;99.90;;;;;;5034867;28;19913;-70
2023/06/09 03:04:06;;;;;;;;;;;11.00;99.90;;;;;;5034583;28;19909;-71
2023/06/09 03:06:36;;;;;;;;;;;11.00;99.90;;;;;;5034594;28;19904;-70
2023/06/09 03:09:02;;;;;;;;;;;11.00;99.90;;;;;;5034533;28;19909;-71
2023/06/09 03:11:28;;;;;;;;;;;11.00;99.90;;;;;;5034660;28;20276;-71
2023/06/09 03:13:53;;;;;;;;;;;11.00;99.90;;;;;;5034370;28;19909;-71
2023/06/09 03:16:19;;;;;;;;;;;11.00;99.90;;;;;;5033851;28;19909;-71
2023/06/09 03:18:46;;;;;;;;;;;11.00;99.90;;;;;;5034615;28;20004;-70
2023/06/09 03:21:13;;;;;;;;;;;10.90;99.90;;;;;;5034461;28;19909;-71
2023/06/09 03:23:39;;;;;;;;;;;10.90;99.90;;;;;;5034515;28;20341;-70
2023/06/09 03:26:05;;;;;;;;;;;10.90;99.90;;;;;;5016898;28;19909;-71
2023/06/09 03:28:30;;;;;;;;;;;10.90;99.90;;;;;;5016831;28;19916;-71
2023/06/09 03:30:56;;;;;;;;;;;10.80;99.90;;;;;;5034313;28;20389;-71
2023/06/09 03:33:22;;;;;;;;;;;10.70;99.90;;;;;;5034208;28;19909;-71
2023/06/09 03:35:49;;;;;;;;;;;10.70;99.90;;;;;;5034318;28;19945;-71
2023/06/09 03:38:15;;;;;;;;;;;10.70;99.90;;;;;;5034129;28;20437;-70
2023/06/09 03:40:40;;;;;;;;;;;10.80;99.90;;;;;;5034042;28;20000;-71
2023/06/09 03:43:07;;;;;;;;;;;10.80;99.90;;;;;;5034348;28;20391;-71
2023/06/09 03:45:34;;;;;;;;;;;10.80;99.90;;;;;;5034038;28;19916;-71
2023/06/09 03:48:00;;;;;;;;;;;10.80;99.90;;;;;;5034288;28;20004;-70
2023/06/09 03:50:26;;;;;;;;;;;10.90;99.90;;;;;;5033938;28;19924;-71
2023/06/09 03:52:52;;;;;;;;;;;10.90;99.90;;;;;;5033977;28;20289;-71
2023/06/09 03:55:22;;;;;;;;;;;10.90;99.90;;;;;;5032637;28;19913;-71
2023/06/09 03:57:47;;;;;;;;;;;10.90;99.90;;;;;;5033960;28;19999;-70
2023/06/09 04:00:15;;;;;;;;;;;10.80;99.90;;;;;;5033973;28;20003;-71
2023/06/09 04:02:40;;;;;;;;;;;10.80;99.90;;;;;;5033758;28;19961;-71
2023/06/09 04:05:06;;;;;;;;;;;10.80;99.90;;;;;;5033812;28;20377;-71
2023/06/09 04:07:32;;;;;;;;;;;10.70;99.90;;;;;;5033926;28;19905;-71
2023/06/09 04:09:57;;;;;;;;;;;10.70;99.90;;;;;;5033637;28;20392;-71
2023/06/09 04:12:23;;;;;;;;;;;10.70;99.90;;;;;;5032687;28;20003;-71
2023/06/09 04:14:48;;;;;;;;;;;10.70;99.90;;;;;;5032579;28;19940;-71
2023/06/09 04:17:14;;;;;;;;;;;10.70;99.90;;;;;;5033173;28;20333;-71
2023/06/09 04:19:40;;;;;;;;;;;10.70;99.90;;;;;;5032868;28;19959;-71
2023/06/09 04:22:07;;;;;;;;;;;10.70;99.90;;;;;;5033202;28;19928;-71
2023/06/09 04:24:33;;;;;;;;;;;10.70;99.90;;;;;;5033573;28;20403;-71
2023/06/09 04:27:00;;;;;;;;;;;10.70;99.90;;;;;;5035720;28;19909;-71
2023/06/09 04:29:25;;;;;;;;;;;10.70;99.90;;;;;;5036484;28;19909;-71
2023/06/09 04:31:58;;;;;;;;;;;10.80;99.90;;;;;;5037343;28;19915;-71
2023/06/09 04:34:27;;;;;;;;;;;10.80;99.90;;;;;;5019513;28;19931;-70
2023/06/09 04:36:53;;;;;;;;;;;10.80;99.90;;;;;;5036596;28;19948;-71
2023/06/09 04:39:24;;;;;;;;;;;10.90;99.90;;;;;;5036894;28;20370;-72
2023/06/09 04:41:53;;;;;;;;;;;10.90;99.90;;;;;;5037140;28;19952;-71
2023/06/09 04:44:20;;;;;;;;;;;10.90;99.90;;;;;;5018690;28;19909;-71
2023/06/09 04:46:46;;;;;;;;;;;11.00;99.90;;;;;;5036706;28;19909;-71
2023/06/09 04:49:12;;;;;;;;;;;10.90;99.90;;;;;;5036858;28;19909;-71
2023/06/09 04:51:41;;;;;;;;;;;10.80;99.90;;;;;;5037061;28;19954;-71
2023/06/09 04:54:10;;;;;;;;;;;10.80;99.90;;;;;;5036269;28;20349;-70
2023/06/09 04:56:36;;;;;;;;;;;10.70;99.90;;;;;;5036876;28;19909;-71
2023/06/09 04:59:03;;;;;;;;;;;10.70;99.90;;;;;;5035917;28;20420;-71
2023/06/09 05:01:29;;;;;;;;;;;10.70;99.90;;;;;;5036707;28;19916;-71
2023/06/09 05:03:55;;;;;;;;;;;10.80;99.90;;;;;;5018422;28;20000;-71
2023/06/09 05:06:21;;;;;;;;;;;10.80;99.90;;;;;;5018954;28;19956;-71
2023/06/09 05:08:47;;;;;;;;;;;10.80;99.90;;;;;;5036608;28;19909;-71
2023/06/09 05:11:12;;;;;;;;;;;10.80;99.90;;;;;;5036006;28;19909;-71
2023/06/09 05:13:38;;;;;;;;;;;10.80;99.90;;;;;;5036378;28;19913;-71
2023/06/09 05:16:04;;;;;;;;;;;10.70;99.90;;;;;;5036092;28;19915;-71
2023/06/09 05:18:30;;;;;;;;;;;10.80;99.90;;;;;;5035591;28;20011;-71
2023/06/09 05:20:56;;;;;;;;;;;10.80;99.90;;;;;;5019004;28;19963;-71
2023/06/09 05:23:22;;;;;;;;;;;10.90;99.90;;;;;;5018329;28;19908;-71
2023/06/09 05:25:47;;;;;;;;;;;10.90;99.90;;;;;;5035189;28;19909;-71
2023/06/09 05:28:13;;;;;;;;;;;11.00;99.90;;;;;;5036133;28;20357;-71
2023/06/09 05:30:38;;;;;;;;;;;11.10;99.90;;;;;;5036416;28;19909;-71
2023/06/09 05:33:04;;;;;;;;;;;11.10;99.90;;;;;;5018573;28;19909;-71
2023/06/09 05:35:30;;;;;;;;;;;11.20;99.90;;;;;;5036301;28;19913;-71
2023/06/09 05:37:55;;;;;;;;;;;11.20;99.90;;;;;;5035471;28;19959;-72
2023/06/09 05:40:21;;;;;;;;;;;11.30;99.90;;;;;;5035085;28;19909;-72
2023/06/09 05:42:47;;;;;;;;;;;11.30;99.90;;;;;;5034107;28;20369;-72
2023/06/09 05:45:12;;;;;;;;;;;11.30;99.90;;;;;;5034062;28;19917;-72
2023/06/09 05:47:38;;;;;;;;;;;11.30;99.90;;;;;;5034048;28;20004;-72
2023/06/09 05:50:05;;;;;;;;;;;11.40;99.90;;;;;;5016100;28;19992;-72
2023/06/09 05:52:30;;;;;;;;;;;11.40;99.90;;;;;;5034663;28;20362;-72
2023/06/09 05:54:56;;;;;;;;;;;11.50;99.90;;;;;;5034798;28;19913;-73
2023/06/09 05:57:22;;;;;;;;;;;11.60;99.90;;;;;;5035915;28;19916;-71
2023/06/09 05:59:48;;;;;;;;;;;11.70;99.90;;;;;;5035904;28;19909;-70
2023/06/09 06:02:13;;;;;;;;;;;11.80;99.90;;;;;;5035315;28;19913;-70
2023/06/09 06:04:39;;;;;;;;;;;11.90;99.90;;;;;;5035748;28;19917;-70
2023/06/09 06:07:05;;;;;;;;;;;12.00;99.90;;;;;;5035768;28;19916;-70
2023/06/09 06:09:30;;;;;;;;;;;12.00;99.90;;;;;;5035613;28;19920;-70
2023/06/09 06:11:56;;;;;;;;;;;12.20;99.90;;;;;;5035591;28;19909;-70
2023/06/09 06:14:21;;;;;;;;;;;12.30;99.90;;;;;;5035778;28;20358;-70
2023/06/09 06:16:47;;;;;;;;;;;12.40;99.90;;;;;;5018029;28;19974;-71
2023/06/09 06:19:13;;;;;;;;;;;12.50;99.90;;;;;;5017810;28;20000;-71
2023/06/09 06:21:42;;;;;;;;;;;12.50;99.90;;;;;;5017606;28;19913;-70
2023/06/09 06:24:10;;;;;;;;;;;12.60;99.90;;;;;;5035410;28;19909;-70
2023/06/09 06:26:36;;;;;;;;;;;12.70;99.90;;;;;;5035351;28;19909;-70
2023/06/09 06:29:02;;;;;;;;;;;12.80;99.90;;;;;;5017197;28;20285;-70
2023/06/09 06:31:29;;;;;;;;;;;13.00;99.90;;;;;;5034166;28;19917;-71
2023/06/09 06:33:55;;;;;;;;;;;13.10;99.90;;;;;;5034754;28;20350;-70
2023/06/09 06:36:21;;;;;;;;;;;13.20;99.90;;;;;;5034835;28;19913;-70
2023/06/09 06:38:47;;;;;;;;;;;13.20;99.90;;;;;;5034585;28;19913;-70
2023/06/09 06:41:13;;;;;;;;;;;13.40;99.90;;;;;;5015095;28;19921;-71
2023/06/09 06:43:38;;;;;;;;;;;13.50;99.90;;;;;;5018819;28;19951;-71
2023/06/09 06:46:05;;;;;;;;;;;13.60;99.90;;;;;;5032924;28;19958;-70
2023/06/09 06:48:30;;;;;;;;;;;13.70;99.90;;;;;;5029048;28;19917;-71
2023/06/09 06:50:56;;;;;;;;;;;13.80;99.90;;;;;;5015598;28;19921;-71
2023/06/09 06:53:21;;;;;;;;;;;13.90;99.90;;;;;;5033637;28;19916;-71
2023/06/09 06:55:47;;;;;;;;;;;14.10;99.90;;;;;;5034670;28;19941;-70
2023/06/09 06:58:12;;;;;;;;;;;14.20;99.90;;;;;;5033747;28;19909;-70
2023/06/09 07:00:38;;;;;;;;;;;14.30;99.90;;;;;;5034533;28;19913;-71
2023/06/09 07:03:04;;;;;;;;;;;14.40;99.90;;;;;;5032098;28;19913;-71
2023/06/09 07:05:29;;;;;;;;;;;14.50;99.90;;;;;;5031871;28;19979;-71
2023/06/09 07:07:55;;;;;;;;;;;14.70;99.90;;;;;;5033277;28;19920;-71
2023/06/09 07:10:20;;;;;;;;;;;14.80;99.90;;;;;;5033788;28;19917;-71
2023/06/09 07:12:46;;;;;;;;;;;15.00;99.90;;;;;;5034027;28;19916;-71
2023/06/09 07:15:11;;;;;;;;;;;15.10;99.90;;;;;;5034224;28;19909;-71
2023/06/09 07:17:37;;;;;;;;;;;15.20;99.90;;;;;;5034254;28;19913;-71
2023/06/09 07:20:03;;;;;;;;;;;15.30;99.90;;;;;;5015684;28;19909;-71
2023/06/09 07:22:29;;;;;;;;;;;15.50;99.90;;;;;;5027891;28;19916;-70
2023/06/09 07:24:54;;;;;;;;;;;15.70;99.90;;;;;;5028547;28;19921;-71
2023/06/09 07:27:20;;;;;;;;;;;15.90;99.90;;;;;;5033893;28;19913;-70
2023/06/09 07:29:46;;;;;;;;;;;16.00;99.90;;;;;;5016420;28;19909;-71
2023/06/09 07:32:12;;;;;;;;;;;16.20;99.90;;;;;;5013646;28;20370;-71
2023/06/09 07:34:38;;;;;;;;;;;16.30;99.90;;;;;;5033851;28;19909;-70
2023/06/09 07:37:04;;;;;;;;;;;16.40;99.90;;;;;;5032251;28;20391;-71
2023/06/09 07:39:30;;;;;;;;;;;16.60;99.90;;;;;;5036802;28;19909;-70
2023/06/09 07:41:56;;;;;;;;;;;16.70;99.90;;;;;;5029200;28;19917;-71
2023/06/09 07:44:21;;;;;;;;;;;16.90;99.90;;;;;;5032542;28;19908;-72
2023/06/09 07:46:47;;;;;;;;;;;17.10;99.90;;;;;;5033142;28;20448;-71
2023/06/09 07:49:14;;;;;;;;;;;17.20;99.90;;;;;;5015976;28;19916;-71
2023/06/09 07:51:39;;;;;;;;;;;17.40;99.90;;;;;;5032088;28;20423;-71
2023/06/09 07:54:08;;;;;;;;;;;17.50;99.90;;;;;;5032829;28;19913;-70
2023/06/09 07:56:33;;;;;;;;;;;17.70;99.90;;;;;;5033167;28;19913;-70
2023/06/09 07:58:59;;;;;;;;;;;17.90;99.90;;;;;;5032020;28;20317;-71
2023/06/09 08:01:25;;;;;;;;;;;18.00;99.90;;;;;;5032793;28;19917;-71
2023/06/09 08:03:51;;;;;;;;;;;18.10;99.90;;;;;;5015759;28;19971;-70
2023/06/09 08:06:16;;;;;;;;;;;18.30;99.90;;;;;;5033618;28;20375;-71
2023/06/09 08:08:42;;;;;;;;;;;18.40;99.90;;;;;;5033279;28;19909;-71
2023/06/09 08:11:07;;;;;;;;;;;18.50;99.90;;;;;;5033399;28;20320;-71
2023/06/09 08:13:33;;;;;;;;;;;18.60;99.90;;;;;;5033418;28;19928;-71
2023/06/09 08:15:58;;;;;;;;;;;18.80;99.90;;;;;;5033496;28;19963;-71
2023/06/09 08:18:24;;;;;;;;;;;18.90;99.90;;;;;;5035905;28;20382;-71
2023/06/09 08:20:50;;;;;;;;;;;19.00;99.90;;;;;;5034147;28;19999;-71
2023/06/09 08:23:20;;;;;;;;;;;19.20;99.90;;;;;;5032847;28;19910;-71
2023/06/09 08:25:46;;;;;;;;;;;19.40;99.90;;;;;;5032735;28;20276;-71
2023/06/09 08:28:12;;;;;;;;;;;19.60;99.90;;;;;;5033461;28;19936;-71
2023/06/09 08:30:37;;;;;;;;;;;19.70;99.90;;;;;;5032694;28;20358;-71
2023/06/09 08:33:03;;;;;;;;;;;19.80;99.90;;;;;;5033295;28;19913;-71
2023/06/09 08:35:31;;;;;;;;;;;19.90;99.90;;;;;;5032898;28;19913;-70
2023/06/09 08:37:57;;;;;;;;;;;20.00;99.90;;;;;;5014928;28;19967;-71
2023/06/09 08:40:23;;;;;;;;;;;20.20;99.90;;;;;;5033297;28;19909;-71
2023/06/09 08:42:50;;;;;;;;;;;20.30;99.90;;;;;;5033181;28;19920;-71
2023/06/09 08:45:16;;;;;;;;;;;20.40;99.60;;;;;;5033249;28;20416;-71
2023/06/09 08:47:46;;;;;;;;;;;20.50;99.90;;;;;;5031199;28;19905;-71
2023/06/09 08:50:13;;;;;;;;;;;20.70;99.60;;;;;;5032711;28;19917;-70
2023/06/09 08:52:38;;;;;;;;;;;20.80;99.90;;;;;;5031999;28;20284;-71
2023/06/09 08:55:04;;;;;;;;;;;21.00;99.30;;;;;;5033086;28;19909;-70
2023/06/09 08:57:30;;;;;;;;;;;21.10;98.90;;;;;;5033494;28;19912;-70
2023/06/09 08:59:56;;;;;;;;;;;21.20;98.50;;;;;;5033286;28;19913;-70
2023/06/09 09:02:21;;;;;;;;;;;21.40;98.70;;;;;;5015522;28;20278;-70
2023/06/09 09:04:47;;;;;;;;;;;21.50;98.20;;;;;;5015497;28;20286;-70
2023/06/09 09:07:12;;;;;;;;;;;21.70;97.30;;;;;;5033260;28;20058;-70
2023/06/09 09:09:38;;;;;;;;;;;21.90;96.10;;;;;;5031602;28;19959;-72
2023/06/09 09:12:05;;;;;;;;;;;22.10;96.20;;;;;;5030970;28;20308;-72
2023/06/09 09:14:31;;;;;;;;;;;22.30;95.70;;;;;;5016007;28;19909;-71
2023/06/09 09:16:57;;;;;;;;;;;22.50;95.20;;;;;;5016398;28;19988;-71
2023/06/09 09:19:26;;;;;;;;;;;22.60;92.90;;;;;;5019042;28;20432;-70
2023/06/09 09:21:53;;;;;;;;;;;22.70;93.10;;;;;;5017788;28;19909;-72
2023/06/09 09:24:19;;;;;;;;;;;22.90;93.00;;;;;;5017197;28;19929;-72
2023/06/09 09:26:45;;;;;;;;;;;23.00;91.70;;;;;;4999596;28;19909;-72
2023/06/09 09:29:10;;;;;;;;;;;23.10;91.10;;;;;;4999453;28;19920;-72
2023/06/09 09:31:39;;;;;;;;;;;23.30;89.20;;;;;;5017736;28;19941;-72
2023/06/09 09:34:09;;;;;;;;;;;23.40;87.80;;;;;;5017383;28;19905;-72
2023/06/09 09:36:40;;;;;;;;;;;23.50;88.80;;;;;;5000370;28;20366;-72
2023/06/09 09:39:06;;;;;;;;;;;23.70;88.30;;;;;;5017816;28;19905;-72
2023/06/09 09:41:32;;;;;;;;;;;23.80;87.00;;;;;;5016805;28;19920;-73
2023/06/09 09:43:57;;;;;;;;;;;23.90;84.90;;;;;;5016314;28;19932;-72
2023/06/09 09:46:23;;;;;;;;;;;24.00;84.70;;;;;;4998838;28;19992;-73
2023/06/09 09:48:49;;;;;;;;;;;24.10;84.30;;;;;;5016267;28;19956;-74
2023/06/09 09:51:15;;;;;;;;;;;24.10;82.10;;;;;;5016421;28;20058;-73
2023/06/09 09:53:44;;;;;;;;;;;24.30;77.70;;;;;;5016316;28;19964;-74
2023/06/09 09:56:10;;;;;;;;;;;24.40;81.20;;;;;;5016302;28;19906;-74
2023/06/09 09:58:36;;;;;;;;;;;24.30;81.40;;;;;;5016123;28;19967;-73
2023/06/09 10:01:03;;;;;;;;;;;24.40;80.00;;;;;;5015995;28;20285;-73
2023/06/09 10:03:29;;;;;;;;;;;24.40;82.30;;;;;;5035143;28;19949;-72
2023/06/09 10:05:55;;;;;;;;;;;24.50;75.20;;;;;;5032617;28;19915;-72
2023/06/09 10:08:28;;;;;;;;;;;24.60;76.30;;;;;;5035731;28;20011;-73
2023/06/09 10:10:56;;;;;;;;;;;24.70;71.40;;;;;;5035721;28;19915;-73
2023/06/09 10:13:22;;;;;;;;;;;24.80;70.10;;;;;;5035788;28;19939;-72
2023/06/09 10:15:50;;;;;;;;;;;24.90;73.40;;;;;;5035452;28;19912;-73
2023/06/09 10:18:16;;;;;;;;;;;25.10;72.70;;;;;;5035665;28;19912;-73
2023/06/09 10:20:42;;;;;;;;;;;25.10;73.00;;;;;;5035534;28;19905;-73
2023/06/09 10:23:08;;;;;;;;;;;25.30;73.10;;;;;;5035507;28;19909;-72
2023/06/09 10:25:34;;;;;;;;;;;25.30;73.10;;;;;;5035000;28;19917;-72
2023/06/09 10:27:59;;;;;;;;;;;25.50;69.80;;;;;;5035418;28;19905;-73
2023/06/09 10:30:25;;;;;;;;;;;25.60;71.50;;;;;;5035411;28;19992;-72
2023/06/09 10:32:54;;;;;;;;;;;25.60;72.10;;;;;;5035285;28;19909;-72
2023/06/09 10:35:23;;;;;;;;;;;25.30;72.60;;;;;;5035198;28;19927;-72
2023/06/09 10:37:50;;;;;;;;;;;24.70;72.50;;;;;;5035248;28;19912;-72
2023/06/09 10:40:40;;;;;;;;;;;24.20;74.70;;;;;;5035212;28;19913;-72
2023/06/09 10:43:05;;;;;;;;;;;23.60;75.80;;;;;;5035264;28;19909;-72
2023/06/09 10:45:50;;;;;;;;;;;23.20;77.50;;;;;;5034988;28;19912;-72
2023/06/09 10:48:42;;;;;;;;;;;23.00;78.00;;;;;;5017268;28;20384;-72
2023/06/09 10:51:26;;;;;;;;;;;22.80;80.60;;;;;;5014177;28;20000;-73
2023/06/09 10:54:09;;;;;;;;;;;22.70;82.00;;;;;;5034860;28;19916;-72
2023/06/09 10:56:36;;;;;;;;;;;22.80;82.30;;;;;;5035046;28;19991;-72
2023/06/09 10:59:03;;;;;;;;;;;23.20;84.30;;;;;;5034782;28;19970;-72
2023/06/09 11:01:29;;;;;;;;;;;23.40;81.20;;;;;;5034770;28;19909;-71
2023/06/09 11:03:54;;;;;;;;;;;23.40;78.50;;;;;;5034811;28;19951;-71
2023/06/09 11:06:20;;;;;;;;;;;23.30;77.50;;;;;;5034669;28;19976;-72
2023/06/09 11:09:05;;;;;;;;;;;23.20;78.80;;;;;;5034553;28;19916;-72
2023/06/09 11:11:50;;;;;;;;;;;23.00;80.60;;;;;;5034535;28;19905;-71
2023/06/09 11:14:34;;;;;;;;;;;22.90;81.30;;;;;;5034283;28;20297;-72
2023/06/09 11:17:30;;;;;;;;;;;22.90;81.10;;;;;;5033483;28;19906;-71
2023/06/09 11:20:11;;;;;;;;;;;22.80;80.30;;;;;;5032996;28;20011;-70
2023/06/09 11:22:44;;;;;;;;;;;22.80;80.10;;;;;;5031150;28;19909;-71
2023/06/09 11:25:18;;;;;;;;;;;22.80;79.40;;;;;;5033450;28;19952;-71
2023/06/09 11:27:45;;;;;;;;;;;22.70;81.30;;;;;;5016091;28;19905;-71
2023/06/09 11:30:11;;;;;;;;;;;22.60;82.10;;;;;;5016673;28;19905;-71
2023/06/09 11:32:47;;;;;;;;;;;22.60;82.60;;;;;;5033238;28;20349;-71
2023/06/09 11:35:25;;;;;;;;;;;22.60;81.80;;;;;;5032947;28;20369;-71
2023/06/09 11:38:05;;;;;;;;;;;22.60;82.70;;;;;;5033786;28;19909;-71
2023/06/09 11:40:31;;;;;;;;;;;22.60;82.20;;;;;;5032980;28;19944;-71
2023/06/09 11:42:58;;;;;;;;;;;22.60;82.80;;;;;;5033910;28;20348;-71
2023/06/09 11:45:24;;;;;;;;;;;22.60;83.30;;;;;;5016071;28;19915;-71
2023/06/09 11:47:56;;;;;;;;;;;22.60;81.90;;;;;;5032963;28;19952;-71
2023/06/09 11:50:22;;;;;;;;;;;22.70;80.60;;;;;;5033608;28;20011;-71
2023/06/09 11:53:00;;;;;;;;;;;22.60;79.90;;;;;;5033697;28;20406;-71
2023/06/09 11:55:26;;;;;;;;;;;22.60;80.90;;;;;;5032791;28;19905;-71
2023/06/09 11:57:52;;;;;;;;;;;22.50;79.70;;;;;;5033676;28;19959;-71
2023/06/09 12:00:18;;;;;;;;;;;22.50;81.30;;;;;;5033652;28;20385;-71
2023/06/09 12:02:46;;;;;;;;;;;22.50;81.70;;;;;;5032698;28;20022;-71
2023/06/09 12:05:12;;;;;;;;;;;22.50;81.10;;;;;;5033522;28;19928;-71
2023/06/09 12:07:38;;;;;;;;;;;22.50;80.40;;;;;;5033662;28;20389;-71
2023/06/09 12:10:04;;;;;;;;;;;22.40;80.40;;;;;;5033383;28;19908;-71
2023/06/09 12:12:30;;;;;;;;;;;22.40;80.70;;;;;;5033599;28;19912;-71
2023/06/09 12:14:55;;;;;;;;;;;22.40;79.90;;;;;;5015767;28;20305;-71
2023/06/09 12:17:22;;;;;;;;;;;22.40;78.20;;;;;;5033449;28;19913;-70
2023/06/09 12:19:48;;;;;;;;;;;22.40;79.00;;;;;;5033439;28;20273;-71
2023/06/09 12:22:14;;;;;;;;;;;22.40;78.90;;;;;;5033588;28;19909;-71
2023/06/09 12:24:39;;;;;;;;;;;22.50;78.00;;;;;;5033088;28;19916;-72
2023/06/09 12:27:14;;;;;;;;;;;22.60;78.10;;;;;;5033470;28;19909;-71
2023/06/09 12:29:39;;;;;;;;;;;22.80;78.70;;;;;;5033483;28;19951;-71
2023/06/09 12:32:06;;;;;;;;;;;23.10;78.30;;;;;;5033385;28;20281;-71
2023/06/09 12:34:32;;;;;;;;;;;23.10;76.60;;;;;;5032288;28;19913;-71
2023/06/09 12:36:58;;;;;;;;;;;23.00;77.30;;;;;;5033369;28;19916;-71
2023/06/09 12:39:32;;;;;;;;;;;22.80;77.30;;;;;;5033311;28;19916;-72
2023/06/09 12:42:08;;;;;;;;;;;22.70;76.90;;;;;;5032452;28;19909;-71
2023/06/09 12:44:35;;;;;;;;;;;22.60;75.80;;;;;;5033200;28;19932;-71
2023/06/09 12:47:00;;;;;;;;;;;22.50;73.90;;;;;;5033600;28;19909;-71
2023/06/09 12:49:26;;;;;;;;;;;22.50;76.30;;;;;;5036967;28;19967;-71
2023/06/09 12:51:52;;;;;;;;;;;22.40;75.70;;;;;;5017571;28;19920;-71
2023/06/09 12:54:18;;;;;;;;;;;22.40;74.50;;;;;;5034253;28;19913;-71
2023/06/09 12:56:44;;;;;;;;;;;22.30;75.00;;;;;;5033762;28;19909;-70
2023/06/09 12:59:09;;;;;;;;;;;22.40;75.90;;;;;;5013260;28;19935;-71
2023/06/09 13:01:35;;;;;;;;;;;22.40;77.20;;;;;;5033128;28;20293;-71
2023/06/09 13:04:01;;;;;;;;;;;22.40;77.70;;;;;;5035047;28;19964;-71
2023/06/09 13:06:26;;;;;;;;;;;22.40;78.40;;;;;;5016159;28;19913;-71
2023/06/09 13:08:52;;;;;;;;;;;22.40;79.00;;;;;;5035014;28;19962;-71
2023/06/09 13:11:18;;;;;;;;;;;22.60;78.20;;;;;;5031456;28;19913;-71
2023/06/09 13:13:43;;;;;;;;;;;23.00;80.60;;;;;;5015791;28;19939;-71
2023/06/09 13:16:09;;;;;;;;;;;23.50;76.10;;;;;;5017806;28;19916;-71
2023/06/09 13:18:35;;;;;;;;;;;23.90;74.00;;;;;;5034516;28;20304;-71
2023/06/09 13:21:00;;;;;;;;;;;24.20;74.40;;;;;;5035249;28;20004;-72
2023/06/09 13:23:26;;;;;;;;;;;24.40;73.80;;;;;;5032341;28;20361;-72
2023/06/09 13:25:51;;;;;;;;;;;24.60;72.00;;;;;;5017099;28;19917;-72
2023/06/09 13:28:17;;;;;;;;;;;24.70;71.80;;;;;;5032502;28;19931;-71
2023/06/09 13:30:43;;;;;;;;;;;24.70;71.80;;;;;;5029953;28;20336;-71
2023/06/09 13:33:09;;;;;;;;;;;24.70;69.60;;;;;;5035572;28;19987;-72
2023/06/09 13:35:35;;;;;;;;;;;24.70;71.90;;;;;;5013892;28;20051;-71
2023/06/09 13:38:01;;;;;;;;;;;24.90;73.50;;;;;;5034856;28;19967;-71
2023/06/09 13:40:27;;;;;;;;;;;25.10;71.80;;;;;;5035442;28;19916;-72
2023/06/09 13:42:53;;;;;;;;;;;25.20;73.10;;;;;;5034112;28;19913;-71
2023/06/09 13:45:19;;;;;;;;;;;25.30;69.90;;;;;;5033269;28;19916;-71
2023/06/09 13:47:45;;;;;;;;;;;25.30;68.70;;;;;;5032752;28;20047;-71
2023/06/09 13:50:11;;;;;;;;;;;25.30;68.70;;;;;;5035188;28;20357;-71
2023/06/09 13:52:37;;;;;;;;;;;25.40;70.30;;;;;;5018351;28;19916;-72
2023/06/09 13:55:03;;;;;;;;;;;25.50;69.60;;;;;;5024620;28;19913;-71
2023/06/09 13:57:29;;;;;;;;;;;25.60;68.60;;;;;;5015874;28;19920;-71
2023/06/09 13:59:55;;;;;;;;;;;25.60;67.10;;;;;;5031050;28;19961;-71
2023/06/09 14:02:20;;;;;;;;;;;25.50;67.70;;;;;;5035425;28;20139;-73
2023/06/09 14:04:46;;;;;;;;;;;25.50;68.20;;;;;;5035138;28;19920;-72
2023/06/09 14:07:11;;;;;;;;;;;25.50;66.30;;;;;;5034708;28;19913;-71
2023/06/09 14:09:39;;;;;;;;;;;25.60;67.00;;;;;;5035244;28;19916;-72
2023/06/09 14:12:05;;;;;;;;;;;25.80;68.40;;;;;;5035080;28;20261;-72
2023/06/09 14:14:31;;;;;;;;;;;25.80;66.00;;;;;;5035261;28;20138;-71
2023/06/09 14:16:57;;;;;;;;;;;25.60;65.80;;;;;;5035000;28;19920;-71